Time;durP1;ratioP1;P1;durP2;ratioP2;P2;SDS_P1;SDS_P2;PMS_P1;PMS_P2;Temp;Humidity;BMP_temperature;BMP_pressure;BME280_temperature;BME280_humidity;BME280_pressure;Samples;Min_cycle;Max_cycle;Signal;HPM_P1;HPM_P2
2023/03/08 01:20:32;;;;;;;1.02;0.50;;;18.00;49.70;;;;;;6302179;28;20116;-69
2023/03/08 01:23:33;;;;;;;1.02;0.80;;;18.00;49.60;;;;;;6244005;28;20037;-72
2023/03/08 01:26:33;;;;;;;0.65;0.65;;;18.00;49.70;;;;;;6243401;28;20105;-70
2023/03/08 01:29:34;;;;;;;0.93;0.55;;;18.00;49.60;;;;;;6243181;28;20108;-74
2023/03/08 01:32:35;;;;;;;0.80;0.70;;;18.00;49.60;;;;;;6243389;28;20017;-72
2023/03/08 01:35:36;;;;;;;0.77;0.55;;;18.00;49.70;;;;;;6243236;28;20029;-72
2023/03/08 01:38:38;;;;;;;0.60;0.55;;;18.00;49.70;;;;;;6243276;28;20498;-72
2023/03/08 01:41:38;;;;;;;0.43;0.40;;;18.00;49.60;;;;;;6242881;28;20596;-72
2023/03/08 01:44:52;;;;;;;0.95;0.70;;;18.00;49.50;;;;;;6243150;28;20021;-72
2023/03/08 01:47:53;;;;;;;0.95;0.70;;;18.00;49.70;;;;;;6242996;28;20018;-72
2023/03/08 01:50:54;;;;;;;0.52;0.40;;;18.00;49.60;;;;;;6225203;28;20388;-72
2023/03/08 01:53:56;;;;;;;0.80;0.40;;;18.00;49.60;;;;;;6242653;28;20061;-72
2023/03/08 01:57:05;;;;;;;1.45;0.50;;;18.00;49.50;;;;;;6217154;28;20037;-72
2023/03/08 02:00:17;;;;;;;1.42;0.70;;;18.00;49.50;;;;;;6232465;28;20060;-72
2023/03/08 02:03:19;;;;;;;1.20;0.80;;;18.00;49.60;;;;;;6243008;28;20032;-73
2023/03/08 02:06:20;;;;;;;1.45;0.55;;;18.00;49.50;;;;;;6243420;28;20021;-72
2023/03/08 02:09:21;;;;;;;1.05;0.60;;;18.00;49.60;;;;;;6247065;28;20021;-72
2023/03/08 02:12:22;;;;;;;2.05;0.65;;;18.00;49.60;;;;;;6246942;28;20167;-72
2023/03/08 02:15:24;;;;;;;0.80;0.40;;;18.00;49.50;;;;;;6246958;28;20515;-72
2023/03/08 02:18:25;;;;;;;0.40;0.40;;;18.00;49.60;;;;;;6229463;28;20234;-72
2023/03/08 02:21:28;;;;;;;0.63;0.40;;;18.00;49.60;;;;;;6228423;28;20049;-73
2023/03/08 02:24:29;;;;;;;0.82;0.63;;;18.00;49.60;;;;;;6246827;28;20022;-72
2023/03/08 02:27:30;;;;;;;0.52;0.50;;;18.00;49.60;;;;;;6246563;28;20024;-72
2023/03/08 02:30:34;;;;;;;0.85;0.55;;;18.00;49.60;;;;;;6247082;28;20816;-72
2023/03/08 02:33:35;;;;;;;0.90;0.65;;;18.00;49.60;;;;;;6228377;28;20022;-73
2023/03/08 02:36:35;;;;;;;1.40;0.55;;;18.00;49.50;;;;;;6246604;28;20029;-72
2023/03/08 02:39:36;;;;;;;1.00;0.45;;;18.00;49.50;;;;;;6246605;28;20025;-72
2023/03/08 02:42:37;;;;;;;1.25;0.60;;;18.00;49.50;;;;;;6228712;28;20022;-72
2023/03/08 02:45:38;;;;;;;0.63;0.55;;;18.00;49.50;;;;;;6228474;28;20026;-72
2023/03/08 02:48:45;;;;;;;0.47;0.40;;;18.00;49.50;;;;;;6245356;28;20028;-71
2023/03/08 02:51:45;;;;;;;0.88;0.50;;;18.00;49.50;;;;;;6246771;28;20029;-71
2023/03/08 02:54:46;;;;;;;0.73;0.63;;;18.00;49.50;;;;;;6246356;28;20406;-71
2023/03/08 02:57:49;;;;;;;0.80;0.60;;;18.00;49.50;;;;;;6247574;28;20026;-72
2023/03/08 03:00:49;;;;;;;0.52;0.32;;;18.00;49.50;;;;;;6246750;28;20030;-69
2023/03/08 03:03:53;;;;;;;0.50;0.40;;;18.00;49.50;;;;;;6247186;28;20021;-70
2023/03/08 03:06:54;;;;;;;1.43;0.50;;;18.00;49.50;;;;;;6228543;28;20046;-71
2023/03/08 03:09:55;;;;;;;0.93;0.50;;;18.00;49.60;;;;;;6246999;28;20394;-73
2023/03/08 03:12:56;;;;;;;0.82;0.65;;;18.00;49.40;;;;;;6228339;28;20064;-69
2023/03/08 03:15:57;;;;;;;1.33;0.50;;;18.00;49.50;;;;;;6245751;28;20026;-69
2023/03/08 03:18:58;;;;;;;0.52;0.43;;;18.00;49.50;;;;;;6245130;28;20032;-69
2023/03/08 03:21:58;;;;;;;0.52;0.50;;;18.00;49.50;;;;;;6257050;28;20537;-70
2023/03/08 03:24:59;;;;;;;0.95;0.50;;;18.00;49.40;;;;;;6269675;28;20033;-70
2023/03/08 03:28:00;;;;;;;1.00;0.55;;;18.00;49.50;;;;;;6270001;28;20021;-69
2023/03/08 03:31:05;;;;;;;0.47;0.40;;;18.00;49.40;;;;;;6251834;28;20032;-69
2023/03/08 03:34:06;;;;;;;0.90;0.50;;;18.00;49.50;;;;;;6251764;28;20115;-69
2023/03/08 03:37:06;;;;;;;0.75;0.40;;;18.00;49.50;;;;;;6269527;28;20147;-69
2023/03/08 03:40:09;;;;;;;0.70;0.50;;;18.00;50.20;;;;;;6269683;28;20069;-70
2023/03/08 03:43:10;;;;;;;0.47;0.43;;;18.00;49.50;;;;;;6251649;28;20037;-69
2023/03/08 03:46:14;;;;;;;1.05;0.50;;;18.00;49.40;;;;;;6269665;28;20025;-69
2023/03/08 03:49:14;;;;;;;4.45;0.50;;;18.00;49.50;;;;;;6269282;28;20029;-69
2023/03/08 03:52:15;;;;;;;0.65;0.43;;;18.00;49.40;;;;;;6269474;28;20075;-69
2023/03/08 03:55:16;;;;;;;0.50;0.50;;;18.00;49.40;;;;;;6269126;28;20029;-69
2023/03/08 03:58:16;;;;;;;2.45;0.50;;;18.00;49.50;;;;;;6269180;28;20382;-69
2023/03/08 04:01:20;;;;;;;1.45;0.50;;;18.00;49.40;;;;;;6269069;28;20474;-69
2023/03/08 04:04:21;;;;;;;0.60;0.50;;;18.00;49.40;;;;;;6268937;28;20106;-69
2023/03/08 04:07:22;;;;;;;1.80;0.70;;;18.00;49.40;;;;;;6268973;28;20029;-69
2023/03/08 04:10:23;;;;;;;0.63;0.50;;;18.00;49.40;;;;;;6269149;28;20478;-69
2023/03/08 04:13:23;;;;;;;0.80;0.50;;;18.00;49.40;;;;;;6269241;28;20108;-69
2023/03/08 04:16:27;;;;;;;0.63;0.50;;;18.00;49.40;;;;;;6268786;28;20040;-69
2023/03/08 04:19:27;;;;;;;0.93;0.55;;;18.00;49.50;;;;;;6268449;28;20029;-69
2023/03/08 04:22:28;;;;;;;0.50;0.50;;;18.00;49.40;;;;;;6268397;28;20057;-69
2023/03/08 04:25:29;;;;;;;0.52;0.47;;;18.00;49.40;;;;;;6268603;28;20017;-69
2023/03/08 04:28:30;;;;;;;1.33;0.60;;;18.00;49.40;;;;;;6268138;28;20091;-69
2023/03/08 04:31:33;;;;;;;0.45;0.38;;;18.00;49.40;;;;;;6250337;28;20032;-69
2023/03/08 04:34:34;;;;;;;0.80;0.35;;;18.00;49.40;;;;;;6268556;28;20079;-69
2023/03/08 04:37:35;;;;;;;0.70;0.40;;;18.00;49.40;;;;;;6268858;28;20482;-69
2023/03/08 04:41:00;;;;;;;0.22;0.22;;;18.00;49.40;;;;;;6268557;28;20116;-70
2023/03/08 04:44:01;;;;;;;0.50;0.32;;;18.00;49.50;;;;;;6268906;28;20021;-70
2023/03/08 04:47:02;;;;;;;0.40;0.40;;;18.00;49.50;;;;;;6269279;28;20071;-70
2023/03/08 04:50:03;;;;;;;1.02;0.40;;;18.00;49.40;;;;;;6250731;28;20021;-68
2023/03/08 04:53:04;;;;;;;1.45;0.70;;;18.00;49.40;;;;;;6268342;28;20103;-70
2023/03/08 04:56:06;;;;;;;0.85;0.55;;;18.00;49.40;;;;;;6268496;28;20677;-71
2023/03/08 05:03:05;;;;;;;0.90;0.50;;;18.00;49.40;;;;;;6268386;28;20037;-69
2023/03/08 05:06:06;;;;;;;0.60;0.30;;;18.00;49.50;;;;;;6268130;28;20021;-70
2023/03/08 05:09:07;;;;;;;0.40;0.40;;;18.00;49.40;;;;;;6268347;28;20037;-70
2023/03/08 05:12:08;;;;;;;0.75;0.50;;;18.00;50.10;;;;;;6267638;28;20551;-69
2023/03/08 05:15:09;;;;;;;0.65;0.50;;;18.00;49.40;;;;;;6267799;28;20024;-70
2023/03/08 05:18:10;;;;;;;0.50;0.40;;;18.00;49.40;;;;;;6267639;28;20021;-70
2023/03/08 05:21:17;;;;;;;0.40;0.40;;;18.00;49.40;;;;;;6267503;28;20411;-70
2023/03/08 05:24:17;;;;;;;0.80;0.50;;;18.00;49.40;;;;;;6250188;28;20108;-70
2023/03/08 05:27:18;;;;;;;1.27;0.63;;;18.00;49.40;;;;;;6267747;28;20025;-70
2023/03/08 05:30:19;;;;;;;0.52;0.52;;;18.00;49.40;;;;;;6268124;28;20077;-70
2023/03/08 05:33:20;;;;;;;0.40;0.40;;;18.00;49.40;;;;;;6267737;28;20032;-70
2023/03/08 05:36:20;;;;;;;0.63;0.50;;;18.00;49.30;;;;;;6267645;28;20025;-70
2023/03/08 05:39:21;;;;;;;0.30;0.30;;;18.00;49.40;;;;;;6267998;28;20032;-70
2023/03/08 05:42:22;;;;;;;0.85;0.45;;;18.00;49.40;;;;;;6271385;28;20065;-70
2023/03/08 05:45:23;;;;;;;0.50;0.40;;;18.00;49.30;;;;;;6254459;28;20029;-70
2023/03/08 05:48:24;;;;;;;1.35;0.55;;;18.00;49.30;;;;;;6254553;28;20017;-71
2023/03/08 05:51:25;;;;;;;0.80;0.40;;;18.00;49.30;;;;;;6253772;28;20033;-70
2023/03/08 05:54:25;;;;;;;1.15;0.60;;;18.00;49.40;;;;;;6272184;28;20128;-69
2023/03/08 05:57:27;;;;;;;0.60;0.40;;;18.00;49.30;;;;;;6272224;28;20063;-70
2023/03/08 06:00:27;;;;;;;0.70;0.47;;;18.00;49.30;;;;;;6253770;28;20021;-70
2023/03/08 06:03:28;;;;;;;0.55;0.47;;;18.00;49.30;;;;;;6249952;28;20025;-70
2023/03/08 06:06:29;;;;;;;0.63;0.50;;;18.00;49.30;;;;;;6247071;28;20021;-70
2023/03/08 06:09:29;;;;;;;0.93;0.63;;;18.00;49.30;;;;;;6245562;28;20686;-71
2023/03/08 06:12:30;;;;;;;0.77;0.45;;;18.00;49.30;;;;;;6245804;28;20739;-69
2023/03/08 06:15:31;;;;;;;0.40;0.40;;;18.00;49.30;;;;;;6245789;28;20037;-70
2023/03/08 06:18:32;;;;;;;1.00;0.60;;;18.00;49.30;;;;;;6246899;28;20068;-70
2023/03/08 06:21:33;;;;;;;1.50;0.50;;;18.00;49.30;;;;;;6246101;28;20450;-70
2023/03/08 06:24:33;;;;;;;0.50;0.45;;;18.00;49.30;;;;;;6228719;28;20018;-70
2023/03/08 06:27:34;;;;;;;0.32;0.32;;;18.00;49.20;;;;;;6269449;28;20029;-70
2023/03/08 06:30:35;;;;;;;0.73;0.50;;;18.00;49.30;;;;;;6271456;28;20478;-69
2023/03/08 06:33:35;;;;;;;0.98;0.50;;;18.00;49.30;;;;;;6252643;28;20359;-70
2023/03/08 06:36:36;;;;;;;0.47;0.45;;;18.00;49.20;;;;;;6253463;28;20386;-70
2023/03/08 06:39:37;;;;;;;0.68;0.50;;;18.00;49.20;;;;;;6270899;28;20360;-70
2023/03/08 06:42:37;;;;;;;0.68;0.30;;;18.00;49.30;;;;;;6270749;28;20494;-70
2023/03/08 06:45:38;;;;;;;0.40;0.40;;;18.00;49.30;;;;;;6252783;28;20183;-70
2023/03/08 06:48:40;;;;;;;0.98;0.43;;;18.00;49.30;;;;;;6270595;28;20436;-70
2023/03/08 06:51:40;;;;;;;0.52;0.40;;;18.00;49.30;;;;;;6243852;28;20088;-70
2023/03/08 06:54:41;;;;;;;0.63;0.43;;;18.00;49.30;;;;;;6227816;28;20057;-70
2023/03/08 06:57:42;;;;;;;0.38;0.30;;;18.00;49.20;;;;;;6227927;28;20522;-70
2023/03/08 07:00:42;;;;;;;0.85;0.52;;;18.00;49.20;;;;;;6233046;28;20129;-70
2023/03/08 07:03:44;;;;;;;0.43;0.43;;;18.00;49.20;;;;;;6248555;28;20029;-70
2023/03/08 07:06:44;;;;;;;0.55;0.35;;;18.00;49.20;;;;;;6258353;28;20024;-70
2023/03/08 07:09:45;;;;;;;0.68;0.30;;;18.00;49.20;;;;;;6254601;28;20119;-70
2023/03/08 07:12:50;;;;;;;0.60;0.40;;;18.00;49.20;;;;;;6272281;28;20506;-70
2023/03/08 07:15:51;;;;;;;1.53;0.53;;;18.00;49.20;;;;;;6272103;28;20099;-70
2023/03/08 07:18:52;;;;;;;0.38;0.32;;;18.00;49.20;;;;;;6272338;28;20031;-69
2023/03/08 07:21:53;;;;;;;0.30;0.30;;;18.00;49.20;;;;;;6254183;28;20417;-71
2023/03/08 07:24:53;;;;;;;0.75;0.30;;;18.00;49.20;;;;;;6253681;28;20482;-70
2023/03/08 07:27:54;;;;;;;0.57;0.47;;;18.00;49.20;;;;;;6271944;28;20075;-70
2023/03/08 07:30:55;;;;;;;0.50;0.40;;;18.00;49.20;;;;;;6271997;28;20029;-71
2023/03/08 07:33:56;;;;;;;0.40;0.40;;;18.00;49.20;;;;;;6253661;28;20086;-70
2023/03/08 07:36:56;;;;;;;0.80;0.50;;;18.00;49.20;;;;;;6253892;28;20033;-70
2023/03/08 07:39:57;;;;;;;0.70;0.45;;;18.00;49.20;;;;;;6271608;28;20643;-70
2023/03/08 07:42:58;;;;;;;0.50;0.50;;;18.00;49.20;;;;;;6271489;28;20033;-70
2023/03/08 07:46:01;;;;;;;0.30;0.30;;;18.00;49.20;;;;;;6253444;28;20096;-70
2023/03/08 07:49:02;;;;;;;0.55;0.40;;;18.00;49.20;;;;;;6253333;28;20117;-70
2023/03/08 07:52:02;;;;;;;0.70;0.45;;;18.00;49.20;;;;;;6270005;28;20120;-70
2023/03/08 07:55:03;;;;;;;1.48;0.50;;;18.00;49.20;;;;;;6271053;28;20430;-70
2023/03/08 07:58:04;;;;;;;0.65;0.30;;;18.00;49.20;;;;;;6271443;28;20025;-71
2023/03/08 08:01:10;;;;;;;0.77;0.47;;;18.00;49.20;;;;;;6253029;28;20390;-70
2023/03/08 08:04:12;;;;;;;1.20;0.50;;;18.00;49.20;;;;;;6270583;28;20374;-70
2023/03/08 08:07:14;;;;;;;0.77;0.50;;;18.00;49.20;;;;;;6271383;28;20025;-70
2023/03/08 08:10:16;;;;;;;0.75;0.40;;;18.00;49.10;;;;;;6252828;28;20035;-69
2023/03/08 08:13:16;;;;;;;0.50;0.40;;;18.00;49.20;;;;;;6270716;28;20029;-70
2023/03/08 08:16:17;;;;;;;0.65;0.40;;;18.00;49.20;;;;;;6270913;28;20043;-71
2023/03/08 08:19:18;;;;;;;0.98;0.40;;;18.00;49.20;;;;;;6252744;28;20032;-70
2023/03/08 08:22:19;;;;;;;1.05;0.50;;;18.00;49.20;;;;;;6270712;28;20041;-70
2023/03/08 08:25:20;;;;;;;0.70;0.40;;;18.00;49.20;;;;;;6243851;28;20076;-69
2023/03/08 08:28:22;;;;;;;0.30;0.30;;;18.00;49.20;;;;;;6245716;28;20141;-70
2023/03/08 08:31:27;;;;;;;0.52;0.47;;;18.00;49.20;;;;;;6245811;28;20092;-70
2023/03/08 08:34:28;;;;;;;0.63;0.38;;;18.00;49.20;;;;;;6255134;28;20025;-71
2023/03/08 08:37:30;;;;;;;1.00;0.60;;;18.00;49.20;;;;;;6252319;28;20028;-71
2023/03/08 08:40:31;;;;;;;0.55;0.43;;;18.00;49.20;;;;;;6251809;28;20114;-71
2023/03/08 08:43:33;;;;;;;0.60;0.40;;;18.00;49.20;;;;;;6270372;28;20417;-70
2023/03/08 08:46:34;;;;;;;1.27;0.40;;;18.00;49.20;;;;;;6252339;28;20032;-70
2023/03/08 08:49:34;;;;;;;0.43;0.20;;;18.00;49.20;;;;;;6252206;28;20452;-71
2023/03/08 08:52:35;;;;;;;0.38;0.35;;;18.00;49.20;;;;;;6270053;28;20423;-70
2023/03/08 08:55:36;;;;;;;0.43;0.40;;;18.00;49.20;;;;;;6269985;28;20021;-70
2023/03/08 08:58:37;;;;;;;0.50;0.40;;;18.00;49.20;;;;;;6270196;28;20029;-70
2023/03/08 09:01:42;;;;;;;0.85;0.40;;;18.00;49.20;;;;;;6270584;28;20040;-70
2023/03/08 09:04:43;;;;;;;1.20;0.38;;;18.00;49.20;;;;;;6269885;28;20083;-70
2023/03/08 09:07:43;;;;;;;0.40;0.40;;;18.00;49.20;;;;;;6270036;28;20425;-70
2023/03/08 09:10:44;;;;;;;0.40;0.40;;;18.00;49.90;;;;;;6251924;28;20535;-70
2023/03/08 09:13:45;;;;;;;0.52;0.40;;;18.00;49.20;;;;;;6269908;28;20116;-71
2023/03/08 09:16:45;;;;;;;0.82;0.43;;;18.00;49.20;;;;;;6272672;28;20025;-70
2023/03/08 09:19:46;;;;;;;0.40;0.38;;;18.00;49.20;;;;;;6274819;28;20096;-69
2023/03/08 09:22:47;;;;;;;1.00;0.30;;;18.00;49.20;;;;;;6274247;28;20033;-70
2023/03/08 09:25:56;;;;;;;0.45;0.40;;;18.00;49.10;;;;;;6274844;28;20021;-70
2023/03/08 09:29:03;;;;;;;0.30;0.30;;;18.00;49.10;;;;;;6274600;28;20529;-70
2023/03/08 09:32:04;;;;;;;0.63;0.38;;;18.00;49.10;;;;;;6256452;28;20060;-70
2023/03/08 09:35:06;;;;;;;0.50;0.40;;;18.00;49.10;;;;;;6256294;28;20075;-71
2023/03/08 09:38:06;;;;;;;0.73;0.45;;;18.00;49.10;;;;;;6274788;28;20029;-71
2023/03/08 09:41:24;;;;;;;0.35;0.30;;;18.00;49.00;;;;;;6274043;28;20033;-70
2023/03/08 09:44:44;;;;;;;0.98;0.30;;;18.00;49.10;;;;;;6274142;28;20045;-70
2023/03/08 09:48:05;;;;;;;0.75;0.30;;;18.00;49.10;;;;;;6256348;28;20504;-70
2023/03/08 09:51:10;;;;;;;0.38;0.30;;;18.00;49.00;;;;;;6274078;28;20021;-71
2023/03/08 09:54:16;;;;;;;1.25;0.50;;;18.00;49.00;;;;;;6273862;28;20063;-71
2023/03/08 09:57:22;;;;;;;0.20;0.20;;;18.00;49.10;;;;;;6274063;28;20043;-70
2023/03/08 10:00:35;;;;;;;0.30;0.30;;;18.00;49.10;;;;;;6273962;28;20074;-71
2023/03/08 10:04:01;;;;;;;0.73;0.40;;;18.00;49.10;;;;;;6255856;28;20120;-70
2023/03/08 10:07:30;;;;;;;0.43;0.30;;;18.00;49.10;;;;;;6273407;28;20017;-70
2023/03/08 10:10:52;;;;;;;0.30;0.30;;;18.00;49.00;;;;;;6269606;28;20494;-71
2023/03/08 10:13:57;;;;;;;0.47;0.30;;;18.00;49.10;;;;;;6273774;28;20092;-71
2023/03/08 10:17:03;;;;;;;;;;;18.00;49.00;;;;;;6273863;28;20009;-71
2023/03/08 10:20:15;;;;;;;0.52;0.30;;;18.00;49.00;;;;;;6272278;28;19905;-70
2023/03/08 10:23:19;;;;;;;0.30;0.30;;;18.00;49.10;;;;;;6255773;28;20658;-70
2023/03/08 10:26:19;;;;;;;0.32;0.30;;;18.00;49.10;;;;;;6255407;28;20116;-71
2023/03/08 10:29:20;;;;;;;1.25;0.45;;;18.00;49.10;;;;;;6272605;28;20047;-70
2023/03/08 10:32:22;;;;;;;0.52;0.40;;;18.00;49.10;;;;;;6273193;28;20025;-70
2023/03/08 10:35:51;;;;;;;0.30;0.30;;;18.00;49.00;;;;;;6246972;28;20029;-71
2023/03/08 10:39:10;;;;;;;0.93;0.30;;;18.00;49.10;;;;;;6246733;28;20069;-70
2023/03/08 10:42:15;;;;;;;0.73;0.40;;;18.00;49.00;;;;;;6265643;28;20021;-71
2023/03/08 10:45:20;;;;;;;;;;;18.00;49.00;;;;;;6247183;28;20482;-71
2023/03/08 10:48:21;;;;;;;1.20;0.50;;;18.00;49.10;;;;;;6247753;28;19912;-70
2023/03/08 10:51:24;;;;;;;0.30;0.30;;;18.00;49.00;;;;;;6247997;28;20064;-70
2023/03/08 10:54:27;;;;;;;0.55;0.30;;;18.00;49.10;;;;;;6230370;28;20036;-70
2023/03/08 10:57:28;;;;;;;0.80;0.30;;;18.00;49.00;;;;;;6247934;28;20159;-69
2023/03/08 11:00:35;;;;;;;0.52;0.32;;;18.00;49.00;;;;;;6247839;28;20021;-71
2023/03/08 11:03:35;;;;;;;0.32;0.30;;;18.00;49.10;;;;;;6247452;28;20036;-71
2023/03/08 11:06:36;;;;;;;0.50;0.30;;;18.00;49.10;;;;;;6246761;28;20053;-70
2023/03/08 11:09:37;;;;;;;0.30;0.30;;;18.00;49.10;;;;;;6229477;28;20037;-71
2023/03/08 11:12:38;;;;;;;0.30;0.20;;;18.00;49.10;;;;;;6247692;28;20022;-70
2023/03/08 11:15:43;;;;;;;0.90;0.35;;;18.00;49.10;;;;;;6256105;28;20082;-70
2023/03/08 11:18:55;;;;;;;;;;;18.00;49.10;;;;;;6272875;28;20573;-71
2023/03/08 11:22:11;;;;;;;0.40;0.40;;;18.00;49.10;;;;;;6271453;28;20378;-71
2023/03/08 11:25:14;;;;;;;;;;;18.00;49.10;;;;;;6271822;28;20371;-71
2023/03/08 11:28:24;;;;;;;0.20;0.20;;;18.00;49.10;;;;;;6272225;28;19962;-71
2023/03/08 11:31:33;;;;;;;0.35;0.30;;;18.00;49.10;;;;;;6245387;28;20026;-71
2023/03/08 11:34:52;;;;;;;1.23;0.40;;;18.00;49.10;;;;;;6257328;28;20444;-71
2023/03/08 11:38:17;;;;;;;0.63;0.20;;;18.00;49.10;;;;;;6253884;28;20450;-71
2023/03/08 11:41:45;;;;;;;0.50;0.37;;;18.00;49.10;;;;;;6271665;28;20032;-70
2023/03/08 11:45:09;;;;;;;0.50;0.30;;;18.00;49.10;;;;;;6262563;28;20122;-70
2023/03/08 11:48:29;;;;;;;0.40;0.30;;;18.00;49.10;;;;;;6271318;28;20029;-71
2023/03/08 11:51:57;;;;;;;0.40;0.30;;;18.00;49.20;;;;;;6300355;28;20021;-70
2023/03/08 11:55:27;;;;;;;0.82;0.25;;;18.00;49.00;;;;;;6301928;28;20394;-71
2023/03/08 11:58:41;;;;;;;0.38;0.17;;;18.00;49.00;;;;;;6261568;28;20027;-71
2023/03/08 12:02:04;;;;;;;0.30;0.30;;;18.00;49.10;;;;;;6302849;28;20112;-71
2023/03/08 12:05:19;;;;;;;0.47;0.15;;;18.00;49.20;;;;;;6284182;28;20051;-71
2023/03/08 12:08:30;;;;;;;1.08;0.30;;;18.00;49.10;;;;;;6294542;28;20535;-71
2023/03/08 12:11:37;;;;;;;0.30;0.20;;;18.00;49.10;;;;;;6309183;28;20028;-69
2023/03/08 12:14:55;;;;;;;0.32;0.30;;;18.00;49.20;;;;;;6319778;28;20055;-71
2023/03/08 12:18:14;;;;;;;0.40;0.20;;;18.00;49.20;;;;;;6298790;28;20082;-70
2023/03/08 12:21:28;;;;;;;0.32;0.32;;;18.10;49.30;;;;;;6299255;28;20048;-71
2023/03/08 12:24:29;;;;;;;0.38;0.28;;;18.00;49.20;;;;;;6303261;28;20103;-71
2023/03/08 12:27:48;;;;;;;1.42;0.30;;;18.00;49.30;;;;;;6293338;28;20021;-71
2023/03/08 12:31:10;;;;;;;0.52;0.22;;;18.00;49.40;;;;;;6297588;28;20023;-71
2023/03/08 12:34:23;;;;;;;0.95;0.20;;;18.00;49.40;;;;;;6312377;28;20019;-71
2023/03/08 12:37:29;;;;;;;0.47;0.20;;;18.00;49.30;;;;;;6287002;28;20561;-71
2023/03/08 12:40:35;;;;;;;;;;;18.00;49.40;;;;;;6276910;28;20066;-71
2023/03/08 12:43:36;;;;;;;0.93;0.20;;;18.00;49.40;;;;;;6251082;28;20058;-71
2023/03/08 12:46:53;;;;;;;0.28;0.20;;;18.00;49.40;;;;;;6285773;28;20016;-71
2023/03/08 12:49:55;;;;;;;0.40;0.20;;;18.00;49.40;;;;;;6318611;28;20032;-71
2023/03/08 12:52:57;;;;;;;1.05;0.40;;;18.00;49.40;;;;;;6317916;28;20038;-71
2023/03/08 12:55:59;;;;;;;0.38;0.20;;;18.00;49.40;;;;;;6318804;28;20023;-71
2023/03/08 12:59:14;;;;;;;1.70;0.75;;;18.00;49.50;;;;;;6286755;28;20028;-70
2023/03/08 13:02:22;;;;;;;0.20;0.20;;;18.00;49.50;;;;;;6301869;28;20032;-71
2023/03/08 13:05:29;;;;;;;0.63;0.20;;;18.00;49.50;;;;;;6292592;28;20035;-71
2023/03/08 13:08:36;;;;;;;1.00;0.20;;;18.00;49.40;;;;;;6314393;28;20026;-71
2023/03/08 13:11:42;;;;;;;3.75;0.40;;;18.00;49.50;;;;;;6318246;28;20121;-71
2023/03/08 13:14:44;;;;;;;4.60;0.47;;;18.00;49.40;;;;;;6318438;28;20089;-71
2023/03/08 13:17:51;;;;;;;4.15;0.30;;;18.00;49.40;;;;;;6308824;28;20112;-71
2023/03/08 13:20:58;;;;;;;1.83;0.32;;;18.00;49.50;;;;;;6275259;28;20406;-71
2023/03/08 13:24:21;;;;;;;9.80;0.50;;;18.00;49.50;;;;;;6293114;28;20021;-71
2023/03/08 13:27:57;;;;;;;7.82;0.70;;;18.00;49.50;;;;;;6293382;28;20021;-71
2023/03/08 13:31:01;;;;;;;2.15;0.65;;;18.00;49.70;;;;;;6284563;28;20029;-71
2023/03/08 13:34:02;;;;;;;3.97;0.90;;;18.00;49.60;;;;;;6296076;28;20024;-70
2023/03/08 13:37:03;;;;;;;7.22;1.17;;;18.00;49.60;;;;;;6296854;28;20085;-70
2023/03/08 13:40:14;;;;;;;3.97;0.65;;;18.00;49.60;;;;;;6282786;28;20025;-71
2023/03/08 13:43:15;;;;;;;4.43;0.73;;;18.00;49.60;;;;;;6287773;28;20024;-71
2023/03/08 13:46:16;;;;;;;5.80;0.70;;;18.00;49.60;;;;;;6318820;28;20104;-71
2023/03/08 13:49:40;;;;;;;4.32;0.90;;;18.00;49.60;;;;;;6317865;28;20052;-71
2023/03/08 13:52:41;;;;;;;3.03;0.50;;;18.00;49.60;;;;;;6313398;28;20500;-71
2023/03/08 13:55:47;;;;;;;3.92;0.50;;;18.00;49.60;;;;;;6293301;28;20024;-71
2023/03/08 13:58:49;;;;;;;0.93;0.50;;;18.00;49.60;;;;;;6287770;28;20024;-71
2023/03/08 14:01:51;;;;;;;3.63;0.60;;;18.10;50.40;;;;;;6294022;28;20025;-71
2023/03/08 14:04:53;;;;;;;1.48;0.60;;;18.00;49.70;;;;;;6301010;28;20027;-71
2023/03/08 14:08:02;;;;;;;1.45;0.32;;;18.10;49.80;;;;;;6304077;28;20077;-70
2023/03/08 14:11:07;;;;;;;2.45;0.40;;;18.00;49.70;;;;;;6304049;28;20024;-70
2023/03/08 14:14:16;;;;;;;2.75;0.75;;;18.10;49.70;;;;;;6305551;28;20485;-71
2023/03/08 14:17:23;;;;;;;2.45;0.52;;;18.00;49.70;;;;;;6279292;28;20524;-71
2023/03/08 14:20:38;;;;;;;3.13;1.17;;;18.00;49.60;;;;;;6301338;28;20021;-71
2023/03/08 14:24:05;;;;;;;6.13;2.50;;;18.10;50.40;;;;;;6264232;28;20128;-71
2023/03/08 14:35:57;;;;;;;6.68;2.10;;;18.00;49.50;;;;;;6282907;28;20021;-70
2023/03/08 14:38:59;;;;;;;3.33;1.77;;;18.10;49.60;;;;;;6253391;28;20441;-70
2023/03/08 14:46:36;;;;;;;6.03;1.77;;;18.00;49.50;;;;;;6247480;28;20057;-70
2023/03/08 14:49:37;;;;;;;5.30;2.10;;;18.00;49.60;;;;;;6255911;28;20028;-70
2023/03/08 15:08:28;;;;;;;4.60;1.92;;;18.10;49.70;;;;;;6272193;28;20482;-70
2023/03/08 15:11:31;;;;;;;7.95;1.65;;;18.10;49.80;;;;;;6271271;28;20473;-70
2023/03/08 15:14:33;;;;;;;3.13;1.35;;;18.10;49.80;;;;;;6279701;28;20495;-71
2023/03/08 15:17:40;;;;;;;12.80;1.77;;;18.10;49.80;;;;;;6296960;28;20025;-70
2023/03/08 15:25:24;;;;;;;6.53;1.67;;;18.10;49.70;;;;;;6282823;28;20048;-70
2023/03/08 15:28:25;;;;;;;11.40;1.83;;;18.10;49.70;;;;;;6296777;28;20059;-70
2023/03/08 15:31:26;;;;;;;12.82;1.83;;;18.10;49.70;;;;;;6269404;28;20021;-70
2023/03/08 15:34:41;;;;;;;14.80;2.00;;;18.10;49.70;;;;;;6286038;28;20059;-70
2023/03/08 15:37:43;;;;;;;17.03;1.80;;;18.10;49.70;;;;;;6300230;28;20393;-70
2023/03/08 15:40:51;;;;;;;4.97;1.50;;;18.10;49.80;;;;;;6285110;28;20021;-70
2023/03/08 15:44:29;;;;;;;8.00;1.58;;;18.10;49.80;;;;;;6295834;28;20034;-71
2023/03/08 15:47:30;;;;;;;8.63;1.58;;;18.10;49.90;;;;;;6295587;28;20487;-71
2023/03/08 15:50:31;;;;;;;4.78;1.17;;;18.10;49.80;;;;;;6295006;28;20031;-71
2023/03/08 15:53:33;;;;;;;10.13;1.50;;;18.10;49.80;;;;;;6289108;28;20448;-71
2023/03/08 15:56:34;;;;;;;4.03;1.33;;;18.10;49.90;;;;;;6315113;28;20444;-71
2023/03/08 15:59:35;;;;;;;5.60;1.38;;;18.10;49.90;;;;;;6306095;28;20035;-71
2023/03/08 16:02:36;;;;;;;8.63;1.35;;;18.10;49.90;;;;;;6265713;28;20133;-71
2023/03/08 16:05:37;;;;;;;7.55;1.60;;;18.10;49.90;;;;;;6278781;28;20523;-71
2023/03/08 16:08:38;;;;;;;4.78;1.30;;;18.10;49.90;;;;;;6319612;28;20028;-71
2023/03/08 16:11:39;;;;;;;8.82;1.50;;;18.10;49.90;;;;;;6303770;28;20016;-71
2023/03/08 16:14:46;;;;;;;3.70;1.40;;;18.10;49.90;;;;;;6303254;28;20393;-71
2023/03/08 16:17:47;;;;;;;4.10;1.30;;;18.10;49.90;;;;;;6280545;28;20032;-71
2023/03/08 16:20:48;;;;;;;3.65;1.48;;;18.10;49.90;;;;;;6289169;28;20024;-71
2023/03/08 16:23:49;;;;;;;15.77;2.38;;;18.10;49.80;;;;;;6305521;28;20041;-72
2023/03/08 16:26:50;;;;;;;54.00;5.00;;;18.10;49.70;;;;;;6287826;28;20016;-71
2023/03/08 16:29:52;;;;;;;30.40;2.58;;;18.10;49.50;;;;;;6301576;28;20024;-71
2023/03/08 16:32:53;;;;;;;30.58;3.10;;;18.10;49.60;;;;;;6298183;28;20797;-71
2023/03/08 16:35:54;;;;;;;35.65;2.90;;;18.10;49.50;;;;;;6290735;28;20466;-71
2023/03/08 16:38:56;;;;;;;19.00;2.63;;;18.10;49.70;;;;;;6308784;28;20032;-73
2023/03/08 16:41:57;;;;;;;23.73;2.40;;;18.10;49.70;;;;;;6293156;28;20027;-71
2023/03/08 16:44:58;;;;;;;12.38;2.28;;;18.10;49.70;;;;;;6293607;28;20021;-71
2023/03/08 16:47:59;;;;;;;20.38;2.83;;;18.10;49.70;;;;;;6310264;28;20054;-71
2023/03/08 16:51:00;;;;;;;12.80;2.50;;;18.10;49.70;;;;;;6310827;28;20208;-70
2023/03/08 16:54:05;;;;;;;10.52;1.67;;;18.10;49.70;;;;;;6319960;28;20104;-71
2023/03/08 16:57:12;;;;;;;9.57;2.10;;;18.10;49.70;;;;;;6320685;28;20016;-71
2023/03/08 17:00:15;;;;;;;11.32;1.60;;;18.10;49.70;;;;;;6300440;28;20588;-70
2023/03/08 17:03:16;;;;;;;8.93;1.50;;;18.10;49.70;;;;;;6294375;28;20035;-71
2023/03/08 17:06:20;;;;;;;9.02;1.60;;;18.10;49.80;;;;;;6316188;28;20020;-73
2023/03/08 17:09:21;;;;;;;5.28;1.48;;;18.10;49.80;;;;;;6292124;28;20115;-71
2023/03/08 17:12:23;;;;;;;4.50;1.50;;;18.10;49.80;;;;;;6303555;28;20055;-70
2023/03/08 17:15:24;;;;;;;8.25;1.45;;;18.10;49.80;;;;;;6317795;28;20032;-71
2023/03/08 17:18:24;;;;;;;7.85;1.55;;;18.10;49.80;;;;;;6273968;28;20036;-70
2023/03/08 17:21:28;;;;;;;12.00;1.77;;;18.10;49.80;;;;;;6271768;28;20025;-70
2023/03/08 17:24:30;;;;;;;10.68;1.45;;;18.10;49.90;;;;;;6264521;28;20054;-69
2023/03/08 17:27:31;;;;;;;4.28;1.38;;;18.10;49.80;;;;;;6291269;28;20020;-70
2023/03/08 17:30:33;;;;;;;11.68;1.55;;;18.10;49.90;;;;;;6291888;28;20604;-71
2023/03/08 17:33:34;;;;;;;13.73;1.40;;;18.10;49.90;;;;;;6296988;28;20020;-71
2023/03/08 17:36:35;;;;;;;18.45;2.28;;;18.10;49.90;;;;;;6273657;28;20104;-71
2023/03/08 17:39:37;;;;;;;6.63;1.40;;;18.10;49.90;;;;;;6290403;28;20035;-70
2023/03/08 17:42:38;;;;;;;12.80;1.73;;;18.10;49.90;;;;;;6288908;28;20023;-71
2023/03/08 17:45:38;;;;;;;5.05;1.80;;;18.10;49.90;;;;;;6321205;28;20035;-71
2023/03/08 17:48:40;;;;;;;6.47;1.90;;;18.10;49.90;;;;;;6284407;28;20078;-71
2023/03/08 17:51:41;;;;;;;11.48;1.90;;;18.10;50.00;;;;;;6287617;28;20047;-71
2023/03/08 17:54:42;;;;;;;15.00;1.58;;;18.10;50.00;;;;;;6284454;28;20802;-71
2023/03/08 17:57:42;;;;;;;13.90;1.65;;;18.10;50.00;;;;;;6295441;28;20062;-71